Time;durP1;ratioP1;P1;durP2;ratioP2;P2;SDS_P1;SDS_P2;PMS_P1;PMS_P2;Temp;Humidity;BMP_temperature;BMP_pressure;BME280_temperature;BME280_humidity;BME280_pressure;Samples;Min_cycle;Max_cycle;Signal;HPM_P1;HPM_P2
2022/07/09 00:00:52;;;;;;;1.92;1.13;;;18.40;92.60;;;;;;5078574;28;20031;-72
2022/07/09 00:03:18;;;;;;;1.95;1.27;;;18.40;92.70;;;;;;5084569;28;20478;-71
2022/07/09 00:05:43;;;;;;;2.13;0.82;;;18.40;92.70;;;;;;5091140;28;20063;-72
2022/07/09 00:08:09;;;;;;;2.28;0.95;;;18.30;92.70;;;;;;5075138;28;20110;-73
2022/07/09 00:10:35;;;;;;;4.38;1.00;;;18.40;92.70;;;;;;5085851;28;20126;-72
2022/07/09 00:13:00;;;;;;;1.80;0.80;;;18.30;92.80;;;;;;5089581;27;20175;-72
2022/07/09 00:15:26;;;;;;;2.50;0.70;;;18.30;92.80;;;;;;5088368;28;21690;-72
2022/07/09 00:17:52;;;;;;;2.35;0.80;;;18.30;92.80;;;;;;5083744;28;20667;-71
2022/07/09 00:20:17;;;;;;;5.57;1.20;;;18.20;92.70;;;;;;5089498;27;20066;-72
2022/07/09 00:22:43;;;;;;;4.47;1.10;;;18.20;92.70;;;;;;5090581;28;20048;-71
2022/07/09 00:25:09;;;;;;;3.80;0.80;;;18.20;92.80;;;;;;5085989;27;20056;-72
2022/07/09 00:27:35;;;;;;;1.70;0.88;;;18.20;92.80;;;;;;5062489;28;20101;-72
2022/07/09 00:30:01;;;;;;;2.58;0.88;;;18.20;92.80;;;;;;5060489;28;20140;-71
2022/07/09 00:32:27;;;;;;;3.15;0.77;;;18.20;92.70;;;;;;5057882;28;20111;-72
2022/07/09 00:34:52;;;;;;;1.83;0.90;;;18.20;92.70;;;;;;5060334;28;20458;-73
2022/07/09 00:37:18;;;;;;;2.13;0.80;;;18.20;92.50;;;;;;5064825;28;20025;-71
2022/07/09 00:39:44;;;;;;;1.88;1.05;;;18.20;92.60;;;;;;5069181;28;20436;-71
2022/07/09 00:42:10;;;;;;;4.75;0.95;;;18.20;92.50;;;;;;5064597;28;20695;-72
2022/07/09 00:44:36;;;;;;;5.05;0.90;;;18.20;92.70;;;;;;5066501;28;20056;-72
2022/07/09 00:47:06;;;;;;;2.70;1.10;;;18.20;92.60;;;;;;5066475;28;20629;-72
2022/07/09 00:49:37;;;;;;;2.95;1.00;;;18.20;92.70;;;;;;5069995;28;20063;-71
2022/07/09 00:52:05;;;;;;;3.35;1.13;;;18.10;92.70;;;;;;5070659;28;20036;-72
2022/07/09 00:54:32;;;;;;;2.50;1.10;;;18.10;92.80;;;;;;5066716;28;20111;-73
2022/07/09 00:56:58;;;;;;;1.45;0.90;;;18.10;93.00;;;;;;5064606;28;20109;-75
2022/07/09 00:59:24;;;;;;;1.42;0.75;;;18.00;93.00;;;;;;5065983;28;20311;-72
2022/07/09 01:01:50;;;;;;;1.75;0.80;;;18.00;92.80;;;;;;5070310;28;20040;-72
2022/07/09 01:04:17;;;;;;;1.45;1.05;;;18.00;92.90;;;;;;5068224;28;20040;-74
2022/07/09 01:06:42;;;;;;;2.58;0.98;;;18.00;92.90;;;;;;5069443;28;20031;-72
2022/07/09 01:09:09;;;;;;;2.47;0.85;;;17.90;92.90;;;;;;5073065;28;20376;-72
2022/07/09 01:11:35;;;;;;;1.70;0.95;;;18.00;93.10;;;;;;5065544;28;20169;-75
2022/07/09 01:14:01;;;;;;;3.42;1.10;;;18.00;92.90;;;;;;5066380;28;20433;-73
2022/07/09 01:16:37;;;;;;;2.40;0.90;;;18.00;93.00;;;;;;5066318;28;20048;-73
2022/07/09 01:19:03;;;;;;;4.03;1.00;;;18.00;92.90;;;;;;5061874;28;20067;-74
2022/07/09 01:21:29;;;;;;;1.63;0.80;;;18.00;92.80;;;;;;5068595;28;20067;-71
2022/07/09 01:23:55;;;;;;;2.28;0.80;;;18.00;92.80;;;;;;5067616;28;20059;-71
2022/07/09 01:26:20;;;;;;;1.85;1.15;;;18.00;92.90;;;;;;5074928;28;20039;-71
2022/07/09 01:28:47;;;;;;;2.38;0.90;;;17.90;92.90;;;;;;5088076;28;20043;-72
2022/07/09 01:31:13;;;;;;;2.20;0.90;;;17.90;92.80;;;;;;5071656;28;20062;-76
2022/07/09 01:33:39;;;;;;;2.03;1.00;;;17.90;92.80;;;;;;5089852;28;20124;-90
2022/07/09 01:36:06;;;;;;;5.13;0.90;;;17.90;93.20;;;;;;5087374;28;20058;-85
2022/07/09 01:38:32;;;;;;;1.45;0.77;;;17.80;92.80;;;;;;5091980;28;20044;-83
2022/07/09 01:40:57;;;;;;;5.63;0.95;;;17.80;92.90;;;;;;5083768;28;20039;-77
2022/07/09 01:43:23;;;;;;;2.92;1.05;;;17.80;93.00;;;;;;5098898;28;20059;-82
2022/07/09 01:45:49;;;;;;;3.50;1.00;;;17.80;92.80;;;;;;5086581;28;20048;-76
2022/07/09 01:48:15;;;;;;;1.27;0.95;;;17.80;92.70;;;;;;5087915;28;20740;-76
2022/07/09 01:50:41;;;;;;;1.75;0.80;;;17.80;92.90;;;;;;5088483;28;20115;-75
2022/07/09 01:53:07;;;;;;;2.72;0.80;;;17.80;92.90;;;;;;5095520;27;20038;-76
2022/07/09 01:55:32;;;;;;;2.50;1.00;;;17.80;92.90;;;;;;5080968;27;20031;-76
2022/07/09 01:57:58;;;;;;;1.38;0.93;;;17.70;93.00;;;;;;5089239;28;20036;-77
2022/07/09 02:00:24;;;;;;;3.15;0.90;;;17.70;92.90;;;;;;5092834;28;20050;-79
2022/07/09 02:02:49;;;;;;;1.98;0.90;;;17.70;93.00;;;;;;5089979;28;20109;-75
2022/07/09 02:05:15;;;;;;;1.83;0.90;;;17.70;93.10;;;;;;5088858;28;20028;-75
2022/07/09 02:07:41;;;;;;;1.65;0.95;;;17.70;93.00;;;;;;5095882;27;20043;-80
2022/07/09 02:10:07;;;;;;;2.33;1.13;;;17.70;93.00;;;;;;5094115;28;20042;-81
2022/07/09 02:12:33;;;;;;;2.28;1.20;;;17.60;93.00;;;;;;5092883;27;20630;-77
2022/07/09 02:14:59;;;;;;;3.00;1.20;;;17.60;93.10;;;;;;5096371;28;20028;-75
2022/07/09 02:17:24;;;;;;;2.72;1.38;;;17.60;93.10;;;;;;5092197;28;20055;-76
2022/07/09 02:19:50;;;;;;;4.47;1.13;;;17.60;93.20;;;;;;5095889;28;20117;-79
2022/07/09 02:22:16;;;;;;;2.58;1.20;;;17.60;93.10;;;;;;5094535;28;20481;-75
2022/07/09 02:24:41;;;;;;;4.95;1.52;;;17.60;93.10;;;;;;5092867;27;20044;-78
2022/07/09 02:27:07;;;;;;;3.85;1.20;;;17.60;93.20;;;;;;5088331;28;20166;-75
2022/07/09 02:29:33;;;;;;;0.80;0.80;;;17.70;93.30;;;;;;5092844;27;20036;-77
2022/07/09 02:31:58;;;;;;;1.65;0.90;;;17.60;93.20;;;;;;5095480;28;20063;-79
2022/07/09 02:34:24;;;;;;;2.35;0.98;;;17.60;93.20;;;;;;5094385;28;20044;-77
2022/07/09 02:36:51;;;;;;;1.25;1.02;;;17.60;93.20;;;;;;5094065;28;20549;-76
2022/07/09 02:39:17;;;;;;;2.72;1.13;;;17.60;93.20;;;;;;5088555;27;20036;-75
2022/07/09 02:41:43;;;;;;;2.70;1.08;;;17.60;93.30;;;;;;5088474;28;20028;-78
2022/07/09 02:44:09;;;;;;;3.75;1.10;;;17.60;93.60;;;;;;5096728;27;20119;-78
2022/07/09 02:46:34;;;;;;;2.42;1.08;;;17.60;93.30;;;;;;5095388;27;20123;-75
2022/07/09 02:49:00;;;;;;;1.85;1.23;;;17.50;93.70;;;;;;5098383;27;21717;-75
2022/07/09 02:51:26;;;;;;;2.78;1.10;;;17.50;93.40;;;;;;5092645;27;20020;-76
2022/07/09 02:53:51;;;;;;;2.83;1.10;;;17.60;93.30;;;;;;5088251;27;20040;-79
2022/07/09 02:56:17;;;;;;;4.15;1.55;;;17.60;93.30;;;;;;5091174;28;20542;-75
2022/07/09 02:58:43;;;;;;;2.53;1.20;;;17.60;93.30;;;;;;5093621;27;20122;-76
2022/07/09 03:01:08;;;;;;;3.67;1.63;;;17.60;93.20;;;;;;5093003;28;20118;-75
2022/07/09 03:03:37;;;;;;;0.95;0.88;;;17.60;93.30;;;;;;5092854;28;20115;-76
2022/07/09 03:06:03;;;;;;;2.90;1.52;;;17.60;93.20;;;;;;5096515;28;20035;-75
2022/07/09 03:08:29;;;;;;;1.23;0.90;;;17.60;93.40;;;;;;5093607;28;20554;-76
2022/07/09 03:10:55;;;;;;;1.83;1.13;;;17.70;93.30;;;;;;5092158;28;20127;-76
2022/07/09 03:13:20;;;;;;;1.70;0.95;;;17.70;93.20;;;;;;5087534;28;20403;-75
2022/07/09 03:18:31;;;;;;;2.03;1.05;;;17.70;93.30;;;;;;5088136;28;20089;-75
2022/07/09 03:20:57;;;;;;;6.05;1.88;;;17.70;93.40;;;;;;5094738;27;20035;-76
2022/07/09 03:23:22;;;;;;;1.33;0.85;;;17.70;93.50;;;;;;5093935;27;20546;-77
2022/07/09 03:25:48;;;;;;;2.05;1.15;;;17.80;93.40;;;;;;5093335;28;20435;-78
2022/07/09 03:28:14;;;;;;;2.50;1.13;;;17.90;93.40;;;;;;5089919;28;20079;-78
2022/07/09 03:30:39;;;;;;;8.77;1.45;;;18.00;93.40;;;;;;5085010;27;20043;-78
2022/07/09 03:33:05;;;;;;;2.97;1.02;;;18.00;93.50;;;;;;5086371;27;20024;-78
2022/07/09 03:35:31;;;;;;;5.55;1.10;;;18.10;93.60;;;;;;5095527;27;20035;-78
2022/07/09 03:37:56;;;;;;;3.70;1.15;;;18.10;93.60;;;;;;5088631;27;20400;-77
2022/07/09 03:40:22;;;;;;;2.00;1.17;;;18.10;93.60;;;;;;5090019;27;20040;-77
2022/07/09 03:42:48;;;;;;;2.70;1.20;;;18.10;93.40;;;;;;5087729;28;20035;-76
2022/07/09 03:45:13;;;;;;;2.58;1.13;;;18.20;93.20;;;;;;5090850;27;20474;-82
2022/07/09 03:47:39;;;;;;;3.42;1.27;;;18.20;93.30;;;;;;5092236;28;20107;-77
2022/07/09 03:50:06;;;;;;;1.88;1.08;;;18.20;93.10;;;;;;5099570;28;20560;-78
2022/07/09 03:52:32;;;;;;;3.17;0.90;;;18.20;93.20;;;;;;5096248;28;20555;-77
2022/07/09 03:54:57;;;;;;;3.53;1.20;;;18.20;93.60;;;;;;5087121;28;20058;-76
2022/07/09 03:57:23;;;;;;;5.32;1.30;;;18.10;93.60;;;;;;5088865;27;20059;-77
2022/07/09 03:59:49;;;;;;;3.63;0.90;;;18.10;93.50;;;;;;5093034;28;20041;-78
2022/07/09 04:02:14;;;;;;;3.70;1.08;;;18.20;92.90;;;;;;5088480;28;20115;-77
2022/07/09 04:04:41;;;;;;;5.10;1.13;;;18.20;92.70;;;;;;5093119;28;20063;-78
2022/07/09 04:07:06;;;;;;;2.17;1.20;;;18.30;93.00;;;;;;5097656;28;20028;-79
2022/07/09 04:09:32;;;;;;;1.92;0.90;;;18.30;92.80;;;;;;5088023;28;20619;-78
2022/07/09 04:11:57;;;;;;;3.88;1.00;;;18.30;93.00;;;;;;5094358;28;20044;-78
2022/07/09 04:14:23;;;;;;;2.33;0.80;;;18.40;93.20;;;;;;5086057;27;20032;-78
2022/07/09 04:16:49;;;;;;;2.58;1.35;;;18.40;93.20;;;;;;5089189;28;20040;-78
2022/07/09 04:19:14;;;;;;;1.98;1.05;;;18.40;93.30;;;;;;5086894;28;20151;-78
2022/07/09 04:21:40;;;;;;;1.73;1.10;;;18.50;92.90;;;;;;5086487;28;20094;-76
2022/07/09 04:24:06;;;;;;;1.55;0.90;;;18.50;92.90;;;;;;5092255;28;20048;-78
2022/07/09 04:26:32;;;;;;;9.95;1.30;;;18.50;92.60;;;;;;5096438;28;20028;-77
2022/07/09 04:28:57;;;;;;;2.60;1.00;;;18.40;92.90;;;;;;5068603;28;20043;-77
2022/07/09 04:31:23;;;;;;;3.47;0.80;;;18.50;92.70;;;;;;5088440;28;20051;-80
2022/07/09 04:33:49;;;;;;;1.85;1.15;;;18.50;93.10;;;;;;5093544;28;20435;-79
2022/07/09 04:36:15;;;;;;;3.08;1.10;;;18.60;92.50;;;;;;5094890;28;20114;-79
2022/07/09 04:38:41;;;;;;;2.15;1.00;;;18.60;92.80;;;;;;5090206;27;20407;-77
2022/07/09 04:41:06;;;;;;;1.90;1.00;;;18.80;92.90;;;;;;5090857;28;20100;-78
2022/07/09 04:43:32;;;;;;;1.98;0.98;;;18.80;92.70;;;;;;5087524;28;20563;-78
2022/07/09 04:45:59;;;;;;;7.10;1.10;;;18.90;92.90;;;;;;5087858;28;20040;-78
2022/07/09 04:48:24;;;;;;;3.80;1.10;;;19.00;93.10;;;;;;5094907;28;20031;-80
2022/07/09 04:50:50;;;;;;;1.40;0.95;;;19.10;93.10;;;;;;5082862;28;20404;-75
2022/07/09 04:53:16;;;;;;;1.95;0.70;;;19.00;92.20;;;;;;5092680;27;20044;-76
2022/07/09 04:55:42;;;;;;;2.53;0.90;;;19.00;92.40;;;;;;5083225;28;20119;-77
2022/07/09 04:58:08;;;;;;;2.35;0.75;;;19.10;92.70;;;;;;5090005;28;20085;-77
2022/07/09 05:00:34;;;;;;;1.83;0.80;;;19.10;92.70;;;;;;5082230;28;20039;-76
2022/07/09 05:02:59;;;;;;;4.28;0.98;;;19.20;92.70;;;;;;5084873;28;20058;-75
2022/07/09 05:05:26;;;;;;;3.70;0.90;;;19.30;92.60;;;;;;5082630;28;20073;-75
2022/07/09 05:07:52;;;;;;;2.60;1.00;;;19.40;92.40;;;;;;5087776;28;20100;-75
2022/07/09 05:10:18;;;;;;;1.50;0.70;;;19.40;92.60;;;;;;5088562;28;20066;-74
2022/07/09 05:12:43;;;;;;;2.70;1.00;;;19.50;92.80;;;;;;5084348;28;20429;-74
2022/07/09 05:15:10;;;;;;;2.60;0.70;;;19.60;92.20;;;;;;5084593;28;20024;-74
2022/07/09 05:17:37;;;;;;;1.60;0.98;;;19.60;92.20;;;;;;5083487;28;20787;-74
2022/07/09 05:20:04;;;;;;;2.13;1.15;;;19.70;92.00;;;;;;5089337;27;20027;-75
2022/07/09 05:22:32;;;;;;;4.53;1.40;;;19.70;91.70;;;;;;5091883;28;20032;-80
2022/07/09 05:24:58;;;;;;;2.55;0.90;;;19.70;92.50;;;;;;5084710;28;20097;-79
2022/07/09 05:27:23;;;;;;;2.88;0.80;;;19.70;92.40;;;;;;5089617;28;20047;-80
2022/07/09 05:29:50;;;;;;;7.05;0.90;;;19.80;92.00;;;;;;5087593;28;20039;-75
2022/07/09 05:32:16;;;;;;;2.03;1.00;;;19.90;92.50;;;;;;5092167;28;20104;-80
2022/07/09 05:34:42;;;;;;;3.97;1.20;;;20.00;91.90;;;;;;5092577;28;20028;-80
2022/07/09 05:37:08;;;;;;;4.60;0.90;;;20.10;91.40;;;;;;5092311;28;20036;-77
2022/07/09 05:39:33;;;;;;;2.03;1.05;;;20.20;91.70;;;;;;5092163;28;20038;-76
2022/07/09 05:41:59;;;;;;;3.72;1.08;;;20.20;91.20;;;;;;5084942;28;20051;-77
2022/07/09 05:44:25;;;;;;;1.65;0.70;;;20.20;91.50;;;;;;5095378;27;20036;-69
2022/07/09 05:46:50;;;;;;;2.13;0.95;;;20.30;91.50;;;;;;5088072;28;20032;-77
2022/07/09 05:49:16;;;;;;;4.35;1.20;;;20.40;90.80;;;;;;5094344;28;20462;-79
2022/07/09 05:51:42;;;;;;;3.33;1.17;;;20.40;90.90;;;;;;5086461;28;20057;-82
2022/07/09 05:54:07;;;;;;;3.72;1.25;;;20.50;91.00;;;;;;5075961;28;20347;-77
2022/07/09 05:56:34;;;;;;;1.92;0.70;;;20.60;91.20;;;;;;5069413;28;20063;-80
2022/07/09 05:59:00;;;;;;;2.25;0.88;;;20.60;90.80;;;;;;5093623;28;20373;-77
2022/07/09 06:01:25;;;;;;;3.47;0.80;;;20.60;90.20;;;;;;5093086;28;20046;-80
2022/07/09 06:03:51;;;;;;;3.33;1.00;;;20.60;90.60;;;;;;5082556;28;20120;-77
2022/07/09 06:06:17;;;;;;;2.28;1.10;;;20.70;90.60;;;;;;5095922;27;20032;-76
2022/07/09 06:08:42;;;;;;;2.08;0.98;;;20.70;90.50;;;;;;5088723;28;20032;-78
2022/07/09 06:11:08;;;;;;;1.55;1.15;;;20.60;90.20;;;;;;5085256;28;21236;-77
2022/07/09 06:13:34;;;;;;;2.85;0.70;;;20.50;90.20;;;;;;5091921;28;20187;-75
2022/07/09 06:15:59;;;;;;;2.28;0.85;;;20.40;90.70;;;;;;5102214;28;20051;-77
2022/07/09 06:18:25;;;;;;;1.75;0.98;;;20.40;90.90;;;;;;5097983;28;20134;-75
2022/07/09 06:20:50;;;;;;;4.45;1.30;;;20.40;90.70;;;;;;5096378;28;20040;-76
2022/07/09 06:23:16;;;;;;;2.38;1.00;;;20.40;91.10;;;;;;5101710;28;20035;-76
2022/07/09 06:25:42;;;;;;;1.08;0.95;;;20.60;90.80;;;;;;5095612;28;20418;-79
2022/07/09 06:28:08;;;;;;;3.22;0.90;;;20.70;90.30;;;;;;5100358;28;20047;-77
2022/07/09 06:30:34;;;;;;;4.00;1.55;;;20.70;90.60;;;;;;5098119;28;20087;-77
2022/07/09 06:33:00;;;;;;;2.15;1.00;;;20.80;91.20;;;;;;5104244;28;20036;-75
2022/07/09 06:35:26;;;;;;;1.52;1.08;;;21.10;91.50;;;;;;5099225;28;20115;-76
2022/07/09 06:37:51;;;;;;;1.83;0.80;;;21.20;89.90;;;;;;5105281;28;20075;-76
2022/07/09 06:40:17;;;;;;;3.45;1.02;;;21.20;89.50;;;;;;5111758;27;20055;-76
2022/07/09 06:42:43;;;;;;;3.30;1.20;;;21.20;89.40;;;;;;5106795;27;20039;-77
2022/07/09 06:45:09;;;;;;;2.42;0.73;;;21.20;89.90;;;;;;5102589;27;20430;-79
2022/07/09 06:47:35;;;;;;;1.15;1.05;;;21.30;90.10;;;;;;5105418;27;20028;-79
2022/07/09 06:50:01;;;;;;;1.92;1.15;;;21.40;88.60;;;;;;5105539;27;20036;-76
2022/07/09 06:52:27;;;;;;;3.17;0.82;;;21.30;90.20;;;;;;5106226;27;20042;-78
2022/07/09 06:54:53;;;;;;;7.43;1.00;;;21.20;90.20;;;;;;5106903;27;20035;-80
2022/07/09 06:57:19;;;;;;;6.55;1.10;;;21.30;89.40;;;;;;5111550;27;20054;-80
2022/07/09 06:59:48;;;;;;;2.05;0.88;;;21.40;87.20;;;;;;5100406;28;20084;-79
2022/07/09 07:02:16;;;;;;;1.80;1.00;;;21.50;86.20;;;;;;5098423;28;20024;-77
2022/07/09 07:04:42;;;;;;;1.40;0.93;;;21.60;87.90;;;;;;5097254;28;20024;-79
2022/07/09 07:07:07;;;;;;;0.88;0.70;;;21.60;85.80;;;;;;5100300;27;20024;-78
2022/07/09 07:09:33;;;;;;;2.40;1.13;;;21.50;86.70;;;;;;5100712;28;20051;-78
2022/07/09 07:11:58;;;;;;;2.03;1.20;;;21.60;87.60;;;;;;5103878;27;20045;-77
2022/07/09 07:14:24;;;;;;;1.23;1.00;;;21.80;87.70;;;;;;5099186;27;20032;-77
2022/07/09 07:16:50;;;;;;;1.90;1.27;;;21.90;86.00;;;;;;5106296;27;20371;-78
2022/07/09 07:19:17;;;;;;;1.77;0.90;;;21.90;85.80;;;;;;5084516;27;20547;-85
2022/07/09 07:21:42;;;;;;;1.70;0.82;;;21.90;85.90;;;;;;5094877;28;20024;-77
2022/07/09 07:24:09;;;;;;;2.22;1.20;;;21.90;84.90;;;;;;5096904;28;20035;-76
2022/07/09 07:26:35;;;;;;;2.97;1.23;;;22.00;86.20;;;;;;5093426;27;20032;-81
2022/07/09 07:29:01;;;;;;;1.38;0.80;;;22.10;83.70;;;;;;5076385;28;20444;-77
2022/07/09 07:31:26;;;;;;;2.20;1.20;;;22.20;84.60;;;;;;5092477;28;20044;-68
2022/07/09 07:33:52;;;;;;;3.85;1.08;;;22.20;84.50;;;;;;5072568;28;20035;-69
2022/07/09 07:36:18;;;;;;;2.05;1.13;;;22.30;84.70;;;;;;5086151;28;20412;-69
2022/07/09 07:38:47;;;;;;;1.73;1.02;;;22.30;85.00;;;;;;5082634;28;20052;-69
2022/07/09 07:41:13;;;;;;;2.22;1.00;;;22.40;83.90;;;;;;5091972;28;20036;-69
2022/07/09 07:43:39;;;;;;;0.90;0.80;;;22.40;83.70;;;;;;5077924;28;20544;-68
2022/07/09 07:46:04;;;;;;;3.83;1.25;;;22.50;82.80;;;;;;5087634;28;20028;-71
2022/07/09 07:48:30;;;;;;;3.13;1.10;;;22.50;82.40;;;;;;5087696;27;21257;-70
2022/07/09 07:50:57;;;;;;;3.00;1.20;;;22.60;82.70;;;;;;5080881;28;20545;-70
2022/07/09 07:53:23;;;;;;;8.23;1.25;;;22.60;84.60;;;;;;5065939;28;20639;-70
2022/07/09 07:55:49;;;;;;;11.90;1.20;;;22.70;83.80;;;;;;5079177;28;20035;-69
2022/07/09 07:58:15;;;;;;;2.30;1.20;;;22.80;81.00;;;;;;5091343;28;20044;-69
2022/07/09 08:00:41;;;;;;;1.10;0.90;;;22.90;82.10;;;;;;5093037;28;20031;-70
2022/07/09 08:03:06;;;;;;;3.08;1.17;;;23.10;83.80;;;;;;5073022;28;20155;-77
2022/07/09 08:05:32;;;;;;;1.48;0.80;;;23.10;81.10;;;;;;5075295;28;20730;-75
2022/07/09 08:07:58;;;;;;;1.80;0.88;;;23.10;80.20;;;;;;5074155;28;20609;-78
2022/07/09 08:10:24;;;;;;;2.13;1.05;;;23.20;77.00;;;;;;5085104;28;20044;-78
2022/07/09 08:12:50;;;;;;;1.02;0.80;;;23.10;77.40;;;;;;5084111;28;20040;-76
2022/07/09 08:15:15;;;;;;;4.47;1.10;;;23.00;76.40;;;;;;5097241;27;20042;-75
2022/07/09 08:17:41;;;;;;;1.88;0.82;;;23.00;79.40;;;;;;5090044;27;20043;-77
2022/07/09 08:20:07;;;;;;;5.20;0.95;;;23.10;77.50;;;;;;5093678;27;20040;-77
2022/07/09 08:22:33;;;;;;;1.58;0.80;;;23.10;78.30;;;;;;5095116;27;20036;-75
2022/07/09 08:24:58;;;;;;;6.18;0.95;;;23.30;77.10;;;;;;5092191;27;20039;-75
2022/07/09 08:27:24;;;;;;;1.23;0.85;;;23.40;75.70;;;;;;5093434;27;20415;-75
2022/07/09 08:29:50;;;;;;;2.28;1.00;;;23.40;78.50;;;;;;5089657;27;20120;-75
2022/07/09 08:32:16;;;;;;;3.72;0.85;;;23.50;77.30;;;;;;5083790;28;20564;-76
2022/07/09 08:34:41;;;;;;;4.75;0.90;;;23.60;75.70;;;;;;5079026;28;20039;-80
2022/07/09 08:37:07;;;;;;;1.17;0.80;;;23.70;73.30;;;;;;5089040;28;20869;-76
2022/07/09 08:39:33;;;;;;;2.75;0.90;;;23.70;72.70;;;;;;5090507;28;20540;-77
2022/07/09 08:41:59;;;;;;;3.53;0.90;;;23.80;72.60;;;;;;5091093;27;20499;-80
2022/07/09 08:44:35;;;;;;;8.35;0.70;;;23.70;70.00;;;;;;5092277;27;20027;-76
2022/07/09 08:47:01;;;;;;;5.80;0.80;;;23.50;74.90;;;;;;5095512;27;20176;-77
2022/07/09 08:49:28;;;;;;;0.93;0.80;;;23.60;74.40;;;;;;5090141;27;20031;-77
2022/07/09 08:51:56;;;;;;;1.17;0.90;;;23.80;75.40;;;;;;5081129;28;20491;-77
2022/07/09 08:54:22;;;;;;;3.80;1.15;;;23.90;74.20;;;;;;5047950;27;20032;-76
2022/07/09 08:56:51;;;;;;;3.35;1.08;;;24.00;73.70;;;;;;5091205;28;20036;-77
2022/07/09 08:59:16;;;;;;;2.25;0.98;;;24.00;75.00;;;;;;5085204;27;20509;-78
2022/07/09 09:01:43;;;;;;;1.88;0.98;;;23.90;72.10;;;;;;5078084;27;20065;-68
2022/07/09 09:04:09;;;;;;;2.65;0.90;;;23.70;74.00;;;;;;5072597;28;20038;-81
2022/07/09 09:06:39;;;;;;;3.67;0.90;;;23.70;76.20;;;;;;5066548;28;20035;-83
2022/07/09 09:09:08;;;;;;;2.10;1.42;;;23.80;74.40;;;;;;5086493;28;20908;-77
2022/07/09 09:11:36;;;;;;;2.65;0.98;;;24.00;70.90;;;;;;5081005;27;20032;-70
2022/07/09 09:14:03;;;;;;;5.30;0.93;;;23.90;71.80;;;;;;5081617;28;20480;-82
2022/07/09 09:16:29;;;;;;;3.05;0.93;;;23.90;74.00;;;;;;5078911;28;20518;-83
2022/07/09 09:18:56;;;;;;;1.23;0.73;;;24.00;71.30;;;;;;5082582;28;20109;-87
2022/07/09 09:21:24;;;;;;;2.25;0.77;;;24.00;71.90;;;;;;5083066;28;21997;-88
2022/07/09 09:23:55;;;;;;;1.65;0.88;;;23.90;71.10;;;;;;5073235;28;20036;-88
2022/07/09 09:26:23;;;;;;;2.60;0.67;;;23.90;70.30;;;;;;5069974;28;20035;-85
2022/07/09 09:28:51;;;;;;;2.72;0.63;;;23.80;70.10;;;;;;5092244;28;20295;-82
2022/07/09 09:31:26;;;;;;;1.77;0.60;;;24.00;71.90;;;;;;5083690;28;20562;-78
2022/07/09 09:33:56;;;;;;;3.30;0.95;;;24.10;66.00;;;;;;5088161;28;20151;-83
2022/07/09 09:36:30;;;;;;;0.85;0.60;;;23.90;69.30;;;;;;5089875;28;20030;-85
2022/07/09 09:39:18;;;;;;;1.35;0.90;;;24.00;69.30;;;;;;5095061;28;20068;-89
2022/07/09 09:41:52;;;;;;;1.63;0.63;;;24.00;70.10;;;;;;5090578;28;20043;-92
2022/07/09 09:44:20;;;;;;;1.52;0.70;;;23.90;66.20;;;;;;5093363;27;20040;-89
2022/07/09 09:46:46;;;;;;;1.92;0.80;;;23.80;67.50;;;;;;5067193;28;20077;-81
2022/07/09 09:49:15;;;;;;;2.03;0.50;;;23.90;69.80;;;;;;5083490;28;20039;-87
2022/07/09 09:51:49;;;;;;;2.40;0.73;;;24.00;66.80;;;;;;5087096;28;20035;-83
2022/07/09 09:54:17;;;;;;;3.15;0.85;;;24.20;68.60;;;;;;5070412;28;20396;-84
2022/07/09 09:56:43;;;;;;;2.83;0.95;;;24.20;68.60;;;;;;5072625;28;20017;-79
2022/07/09 09:59:10;;;;;;;1.92;0.90;;;24.30;67.20;;;;;;5064092;28;20062;-79
2022/07/09 10:01:37;;;;;;;1.58;0.68;;;24.30;67.00;;;;;;5068691;28;20031;-78
2022/07/09 10:04:03;;;;;;;1.17;0.50;;;24.40;65.50;;;;;;5084560;28;20032;-77
2022/07/09 10:06:29;;;;;;;2.90;1.00;;;24.50;63.30;;;;;;5077578;28;20032;-77
2022/07/09 10:08:55;;;;;;;1.60;0.68;;;24.50;64.00;;;;;;5087314;28;20040;-87
2022/07/09 10:11:21;;;;;;;2.80;1.05;;;24.60;63.10;;;;;;5090712;28;20478;-76
2022/07/09 10:13:55;;;;;;;2.80;0.80;;;24.70;62.50;;;;;;5089603;27;20027;-80
2022/07/09 10:16:41;;;;;;;3.30;0.80;;;24.80;63.50;;;;;;5088799;28;20027;-81
2022/07/09 10:19:07;;;;;;;2.75;0.77;;;24.90;62.10;;;;;;5092145;28;20123;-82
2022/07/09 10:21:32;;;;;;;2.30;0.75;;;24.90;64.00;;;;;;5094462;28;20532;-82
2022/07/09 10:23:58;;;;;;;1.77;0.88;;;25.10;62.60;;;;;;5095237;27;20072;-90
2022/07/09 10:26:37;;;;;;;1.60;1.00;;;25.10;59.50;;;;;;5096289;27;20051;-73
2022/07/09 10:29:03;;;;;;;3.90;0.90;;;25.00;62.10;;;;;;5080554;28;20109;-71
2022/07/09 10:31:32;;;;;;;4.03;0.90;;;24.80;60.00;;;;;;5093685;27;20480;-73
2022/07/09 10:34:08;;;;;;;4.05;0.88;;;24.60;59.80;;;;;;5090462;28;20127;-74
2022/07/09 10:36:33;;;;;;;1.23;0.70;;;24.40;60.90;;;;;;5064194;28;20584;-74
2022/07/09 10:38:59;;;;;;;1.73;0.65;;;24.40;62.90;;;;;;5082550;27;20056;-72
2022/07/09 10:41:25;;;;;;;4.97;0.88;;;24.60;59.60;;;;;;5089578;27;20052;-74
2022/07/09 10:43:52;;;;;;;1.70;0.80;;;24.80;59.60;;;;;;5093341;27;20030;-74
2022/07/09 10:46:18;;;;;;;2.92;0.98;;;24.90;61.60;;;;;;5091204;27;20028;-75
2022/07/09 10:48:47;;;;;;;1.48;0.65;;;25.10;58.30;;;;;;5093837;27;20041;-72
2022/07/09 10:51:20;;;;;;;2.25;0.50;;;25.10;59.60;;;;;;5091404;27;20062;-73
2022/07/09 10:53:46;;;;;;;2.72;0.60;;;25.20;59.20;;;;;;5091997;28;20060;-72
2022/07/09 10:56:17;;;;;;;5.45;0.80;;;25.30;57.60;;;;;;5082015;27;20192;-74
2022/07/09 10:58:46;;;;;;;1.67;0.77;;;25.30;57.10;;;;;;5090044;28;20583;-73
2022/07/09 11:01:20;;;;;;;2.40;0.75;;;25.20;57.00;;;;;;5078400;28;20036;-73
2022/07/09 11:03:51;;;;;;;1.20;0.60;;;25.20;58.80;;;;;;5084967;27;20141;-72
2022/07/09 11:06:17;;;;;;;1.95;0.65;;;25.30;57.60;;;;;;5086433;27;20032;-74
2022/07/09 11:08:43;;;;;;;3.13;0.60;;;25.30;58.10;;;;;;5072533;28;20139;-73
2022/07/09 11:11:09;;;;;;;1.45;0.40;;;25.40;57.80;;;;;;5100060;27;20461;-76
2022/07/09 11:13:35;;;;;;;0.95;0.50;;;25.40;57.00;;;;;;5085798;28;20051;-73
2022/07/09 11:16:01;;;;;;;1.08;0.50;;;25.50;56.60;;;;;;5086957;28;20511;-73
2022/07/09 11:18:28;;;;;;;1.98;0.77;;;25.40;58.20;;;;;;5088564;28;20067;-78
2022/07/09 11:20:53;;;;;;;2.25;0.70;;;25.50;56.20;;;;;;5093018;28;20042;-75
2022/07/09 11:23:19;;;;;;;2.85;0.90;;;25.20;58.00;;;;;;5092953;27;20544;-73
2022/07/09 11:25:46;;;;;;;2.28;0.63;;;25.10;57.20;;;;;;5080987;28;20048;-73
2022/07/09 11:28:23;;;;;;;1.05;0.60;;;24.90;57.50;;;;;;5083440;28;20122;-74
2022/07/09 11:31:02;;;;;;;1.67;0.70;;;24.70;56.60;;;;;;5070177;27;20035;-73
2022/07/09 11:34:10;;;;;;;4.00;0.70;;;24.50;58.60;;;;;;5079953;28;20416;-72
2022/07/09 11:36:15;;;;;;;1.08;0.70;;;24.70;58.60;;;;;;5082263;28;20143;-74
2022/07/09 11:38:51;;;;;;;1.58;0.68;;;24.90;56.30;;;;;;5057206;28;20205;-75
2022/07/09 11:41:18;;;;;;;2.25;0.70;;;25.20;59.80;;;;;;5100075;27;20126;-74
2022/07/09 11:43:50;;;;;;;1.67;0.60;;;25.40;57.00;;;;;;5081850;28;20044;-74
2022/07/09 11:46:20;;;;;;;2.55;0.80;;;25.20;57.80;;;;;;5091274;27;20059;-73
2022/07/09 11:48:53;;;;;;;2.10;0.60;;;24.90;57.90;;;;;;5079273;27;20035;-72
2022/07/09 11:51:33;;;;;;;3.35;0.50;;;24.60;58.00;;;;;;5075490;28;20043;-75
2022/07/09 11:53:59;;;;;;;1.80;0.70;;;24.40;59.40;;;;;;5083825;28;20028;-74
2022/07/09 11:56:25;;;;;;;0.93;0.65;;;24.50;59.60;;;;;;5089871;27;20135;-72
2022/07/09 11:58:51;;;;;;;1.17;0.47;;;24.80;57.90;;;;;;5085383;28;20130;-70
2022/07/09 12:01:17;;;;;;;2.47;0.50;;;24.90;57.90;;;;;;5085780;28;20141;-75
2022/07/09 12:03:50;;;;;;;0.85;0.50;;;25.10;59.10;;;;;;5088637;28;20036;-73
2022/07/09 12:06:16;;;;;;;2.17;0.73;;;25.30;58.30;;;;;;5088674;28;20036;-76
2022/07/09 12:08:43;;;;;;;1.92;0.70;;;25.40;57.40;;;;;;5085962;28;20059;-78
2022/07/09 12:11:08;;;;;;;1.15;0.60;;;25.50;56.80;;;;;;5090820;27;20047;-76
2022/07/09 12:13:34;;;;;;;2.05;0.63;;;25.50;57.70;;;;;;5090110;27;20442;-76
2022/07/09 12:16:00;;;;;;;0.80;0.60;;;25.50;58.40;;;;;;5081426;27;20120;-76
2022/07/09 12:18:25;;;;;;;1.15;0.60;;;25.50;57.90;;;;;;5085590;28;20130;-74
2022/07/09 12:20:51;;;;;;;4.50;0.52;;;25.60;60.40;;;;;;5091637;27;20026;-71
2022/07/09 12:23:17;;;;;;;4.47;0.60;;;25.60;57.80;;;;;;5076762;28;20043;-71
2022/07/09 12:25:43;;;;;;;1.25;0.65;;;25.50;58.60;;;;;;5084144;28;20021;-70
2022/07/09 12:28:09;;;;;;;4.22;0.40;;;25.50;58.40;;;;;;5088455;27;20214;-72
2022/07/09 12:30:34;;;;;;;0.90;0.50;;;25.40;59.20;;;;;;5082055;28;20404;-72
2022/07/09 12:33:00;;;;;;;1.10;0.32;;;25.40;58.80;;;;;;5082843;27;20036;-71
2022/07/09 12:35:27;;;;;;;3.28;0.55;;;25.50;58.30;;;;;;5077288;28;20531;-71
2022/07/09 12:37:54;;;;;;;0.80;0.30;;;25.50;57.80;;;;;;5092670;27;20043;-77
2022/07/09 12:40:20;;;;;;;1.33;0.70;;;25.60;57.60;;;;;;5094681;28;20036;-82
2022/07/09 12:42:45;;;;;;;1.80;0.40;;;25.70;58.10;;;;;;5079364;27;20743;-67
2022/07/09 12:45:12;;;;;;;2.15;0.40;;;25.80;56.10;;;;;;5093367;27;20040;-84
2022/07/09 12:47:38;;;;;;;0.65;0.40;;;25.70;57.30;;;;;;5086061;27;20480;-82